San Bernardino, California
Current Conditions -  °F | °C
As of 8:53 PM on Thursday 30 Oct 2014 (Local Time) from KRAL Reporting Station
Clear Clear  
Wind Chill: 67°   Ceiling: Unl
Heat Index: 67°   Visibility: 10mi
Dew Point: 59°   Wind: 3mph
Humidity: 76%   Direction: NA
Pressure: 29.98"   Gusts: NA
Location:  34.11°N, 117.29°W
Report Text: KRAL 310353Z AUTO VRB03KT 10SM CLR 19/15 A2998 RMK AO2 SLP138 T01940150
Loading
Personal Weather Stations






























Interactive Weather Map
Tropical Storm Tracking
New forecast layout! Learn more

10-Day Weather Forecast

Advertisements
Track Severe Weather on mobile